sensor_id;sensor_type;location;lat;lon;timestamp;P1;durP1;ratioP1;P2;durP2;ratioP2
21868;SDS011;11099;41.564;23.296;2024-03-08T00:00:43;8.55;;;5.93;;
21868;SDS011;11099;41.564;23.296;2024-03-08T00:06:49;8.10;;;5.75;;
21868;SDS011;11099;41.564;23.296;2024-03-08T00:09:18;9.60;;;6.47;;
21868;SDS011;11099;41.564;23.296;2024-03-08T00:11:46;6.75;;;6.10;;
21868;SDS011;11099;41.564;23.296;2024-03-08T00:14:18;7.95;;;6.68;;
21868;SDS011;11099;41.564;23.296;2024-03-08T00:16:47;12.53;;;6.57;;
21868;SDS011;11099;41.564;23.296;2024-03-08T00:19:13;8.55;;;6.80;;
21868;SDS011;11099;41.564;23.296;2024-03-08T00:21:42;9.18;;;7.03;;
21868;SDS011;11099;41.564;23.296;2024-03-08T00:24:11;10.32;;;7.40;;
21868;SDS011;11099;41.564;23.296;2024-03-08T00:26:41;8.45;;;6.65;;
21868;SDS011;11099;41.564;23.296;2024-03-08T00:29:15;9.68;;;7.50;;
21868;SDS011;11099;41.564;23.296;2024-03-08T00:31:43;7.85;;;7.05;;
21868;SDS011;11099;41.564;23.296;2024-03-08T00:34:12;14.83;;;7.27;;
21868;SDS011;11099;41.564;23.296;2024-03-08T00:39:10;10.68;;;6.88;;
21868;SDS011;11099;41.564;23.296;2024-03-08T00:41:52;8.98;;;7.40;;
21868;SDS011;11099;41.564;23.296;2024-03-08T00:44:23;11.10;;;7.65;;
21868;SDS011;11099;41.564;23.296;2024-03-08T00:46:58;8.75;;;7.40;;
21868;SDS011;11099;41.564;23.296;2024-03-08T00:49:26;11.52;;;7.80;;
21868;SDS011;11099;41.564;23.296;2024-03-08T00:51:53;12.07;;;7.53;;
21868;SDS011;11099;41.564;23.296;2024-03-08T00:54:22;9.15;;;8.02;;
21868;SDS011;11099;41.564;23.296;2024-03-08T00:56:50;11.40;;;7.90;;
21868;SDS011;11099;41.564;23.296;2024-03-08T00:59:22;9.55;;;7.05;;
21868;SDS011;11099;41.564;23.296;2024-03-08T01:01:49;13.10;;;7.63;;
21868;SDS011;11099;41.564;23.296;2024-03-08T01:04:18;8.80;;;7.10;;
21868;SDS011;11099;41.564;23.296;2024-03-08T01:06:46;8.63;;;7.35;;
21868;SDS011;11099;41.564;23.296;2024-03-08T01:09:16;9.25;;;6.57;;
21868;SDS011;11099;41.564;23.296;2024-03-08T01:11:45;8.23;;;6.18;;
21868;SDS011;11099;41.564;23.296;2024-03-08T01:14:14;8.45;;;5.32;;
21868;SDS011;11099;41.564;23.296;2024-03-08T01:16:43;8.32;;;5.72;;
21868;SDS011;11099;41.564;23.296;2024-03-08T01:19:09;9.80;;;5.82;;
21868;SDS011;11099;41.564;23.296;2024-03-08T01:21:35;7.13;;;5.45;;
21868;SDS011;11099;41.564;23.296;2024-03-08T01:24:07;9.80;;;5.68;;
21868;SDS011;11099;41.564;23.296;2024-03-08T01:26:33;6.60;;;5.43;;
21868;SDS011;11099;41.564;23.296;2024-03-08T01:29:02;9.00;;;6.10;;
21868;SDS011;11099;41.564;23.296;2024-03-08T01:31:30;9.07;;;6.07;;
21868;SDS011;11099;41.564;23.296;2024-03-08T01:34:00;9.75;;;6.55;;
21868;SDS011;11099;41.564;23.296;2024-03-08T01:36:31;10.02;;;5.78;;
21868;SDS011;11099;41.564;23.296;2024-03-08T01:39:06;7.43;;;5.40;;
21868;SDS011;11099;41.564;23.296;2024-03-08T01:41:33;7.90;;;6.22;;
21868;SDS011;11099;41.564;23.296;2024-03-08T01:44:08;10.48;;;6.20;;
21868;SDS011;11099;41.564;23.296;2024-03-08T01:46:39;8.55;;;6.50;;
21868;SDS011;11099;41.564;23.296;2024-03-08T01:49:17;8.02;;;6.30;;
21868;SDS011;11099;41.564;23.296;2024-03-08T01:51:49;6.10;;;5.50;;
21868;SDS011;11099;41.564;23.296;2024-03-08T01:54:19;7.18;;;5.72;;
21868;SDS011;11099;41.564;23.296;2024-03-08T01:56:53;7.50;;;6.03;;
21868;SDS011;11099;41.564;23.296;2024-03-08T01:59:25;8.85;;;5.82;;
21868;SDS011;11099;41.564;23.296;2024-03-08T02:01:55;7.28;;;5.45;;
21868;SDS011;11099;41.564;23.296;2024-03-08T02:10:24;7.43;;;6.20;;
21868;SDS011;11099;41.564;23.296;2024-03-08T02:13:37;7.47;;;6.68;;
21868;SDS011;11099;41.564;23.296;2024-03-08T02:16:08;9.30;;;7.30;;
21868;SDS011;11099;41.564;23.296;2024-03-08T02:18:39;12.52;;;8.85;;
21868;SDS011;11099;41.564;23.296;2024-03-08T02:28:57;9.23;;;7.47;;
21868;SDS011;11099;41.564;23.296;2024-03-08T02:55:15;10.95;;;7.03;;
21868;SDS011;11099;41.564;23.296;2024-03-08T02:57:42;10.13;;;8.45;;
21868;SDS011;11099;41.564;23.296;2024-03-08T03:00:18;9.07;;;7.78;;
21868;SDS011;11099;41.564;23.296;2024-03-08T03:02:50;9.63;;;7.45;;
21868;SDS011;11099;41.564;23.296;2024-03-08T03:05:21;10.73;;;7.13;;
21868;SDS011;11099;41.564;23.296;2024-03-08T03:07:54;8.88;;;7.13;;
21868;SDS011;11099;41.564;23.296;2024-03-08T03:10:43;9.05;;;6.28;;
21868;SDS011;11099;41.564;23.296;2024-03-08T03:13:12;10.38;;;7.20;;
21868;SDS011;11099;41.564;23.296;2024-03-08T03:15:39;10.00;;;6.50;;
21868;SDS011;11099;41.564;23.296;2024-03-08T03:20:54;7.72;;;6.25;;
21868;SDS011;11099;41.564;23.296;2024-03-08T03:23:46;13.85;;;6.65;;
21868;SDS011;11099;41.564;23.296;2024-03-08T03:26:18;9.25;;;6.75;;
21868;SDS011;11099;41.564;23.296;2024-03-08T03:28:47;7.75;;;6.72;;
21868;SDS011;11099;41.564;23.296;2024-03-08T03:31:16;7.50;;;6.25;;
21868;SDS011;11099;41.564;23.296;2024-03-08T03:33:50;7.40;;;5.32;;
21868;SDS011;11099;41.564;23.296;2024-03-08T03:36:16;10.07;;;5.95;;
21868;SDS011;11099;41.564;23.296;2024-03-08T03:38:49;7.55;;;5.40;;
21868;SDS011;11099;41.564;23.296;2024-03-08T03:42:15;5.90;;;4.55;;
21868;SDS011;11099;41.564;23.296;2024-03-08T03:44:48;5.28;;;4.78;;
21868;SDS011;11099;41.564;23.296;2024-03-08T03:50:24;4.97;;;4.40;;
21868;SDS011;11099;41.564;23.296;2024-03-08T03:53:21;5.22;;;4.70;;
21868;SDS011;11099;41.564;23.296;2024-03-08T03:55:51;4.88;;;3.78;;
21868;SDS011;11099;41.564;23.296;2024-03-08T03:58:19;5.03;;;4.00;;
21868;SDS011;11099;41.564;23.296;2024-03-08T04:00:54;4.78;;;4.22;;
21868;SDS011;11099;41.564;23.296;2024-03-08T04:03:22;5.03;;;4.40;;
21868;SDS011;11099;41.564;23.296;2024-03-08T04:05:53;5.55;;;4.45;;
21868;SDS011;11099;41.564;23.296;2024-03-08T04:08:21;7.45;;;4.70;;
21868;SDS011;11099;41.564;23.296;2024-03-08T04:17:44;6.28;;;5.13;;
21868;SDS011;11099;41.564;23.296;2024-03-08T04:35:12;6.97;;;6.28;;
21868;SDS011;11099;41.564;23.296;2024-03-08T04:43:05;7.10;;;5.72;;
21868;SDS011;11099;41.564;23.296;2024-03-08T04:58:01;7.47;;;6.03;;
21868;SDS011;11099;41.564;23.296;2024-03-08T05:00:39;9.63;;;6.88;;
21868;SDS011;11099;41.564;23.296;2024-03-08T05:03:19;8.43;;;6.75;;
21868;SDS011;11099;41.564;23.296;2024-03-08T05:11:01;8.77;;;7.03;;
21868;SDS011;11099;41.564;23.296;2024-03-08T05:13:35;10.00;;;7.53;;
21868;SDS011;11099;41.564;23.296;2024-03-08T05:18:39;11.55;;;7.40;;
21868;SDS011;11099;41.564;23.296;2024-03-08T05:21:07;11.10;;;8.30;;
21868;SDS011;11099;41.564;23.296;2024-03-08T05:23:36;10.30;;;7.50;;
21868;SDS011;11099;41.564;23.296;2024-03-08T05:26:11;7.90;;;7.10;;
21868;SDS011;11099;41.564;23.296;2024-03-08T05:29:00;13.50;;;7.38;;
21868;SDS011;11099;41.564;23.296;2024-03-08T05:31:50;8.35;;;6.82;;
21868;SDS011;11099;41.564;23.296;2024-03-08T05:34:26;9.20;;;6.93;;
21868;SDS011;11099;41.564;23.296;2024-03-08T05:37:05;10.93;;;6.82;;
21868;SDS011;11099;41.564;23.296;2024-03-08T05:39:51;8.55;;;6.88;;
21868;SDS011;11099;41.564;23.296;2024-03-08T05:45:35;8.60;;;6.32;;
21868;SDS011;11099;41.564;23.296;2024-03-08T05:49:05;7.13;;;6.43;;
21868;SDS011;11099;41.564;23.296;2024-03-08T05:52:14;8.90;;;6.85;;
21868;SDS011;11099;41.564;23.296;2024-03-08T05:54:48;9.20;;;7.70;;
21868;SDS011;11099;41.564;23.296;2024-03-08T05:59:48;9.75;;;8.35;;
21868;SDS011;11099;41.564;23.296;2024-03-08T06:02:18;9.82;;;8.20;;
21868;SDS011;11099;41.564;23.296;2024-03-08T06:04:50;18.48;;;9.77;;
21868;SDS011;11099;41.564;23.296;2024-03-08T06:08:20;12.63;;;8.52;;
21868;SDS011;11099;41.564;23.296;2024-03-08T06:11:34;10.75;;;8.52;;
21868;SDS011;11099;41.564;23.296;2024-03-08T06:14:03;12.05;;;8.82;;
21868;SDS011;11099;41.564;23.296;2024-03-08T06:16:32;11.43;;;9.88;;
21868;SDS011;11099;41.564;23.296;2024-03-08T06:19:56;12.00;;;9.32;;
21868;SDS011;11099;41.564;23.296;2024-03-08T06:22:47;11.40;;;8.93;;
21868;SDS011;11099;41.564;23.296;2024-03-08T06:25:35;12.52;;;9.40;;
21868;SDS011;11099;41.564;23.296;2024-03-08T06:28:07;10.45;;;8.45;;
21868;SDS011;11099;41.564;23.296;2024-03-08T06:33:08;13.27;;;9.88;;
21868;SDS011;11099;41.564;23.296;2024-03-08T06:38:09;12.45;;;8.90;;
21868;SDS011;11099;41.564;23.296;2024-03-08T06:43:07;12.50;;;9.35;;
21868;SDS011;11099;41.564;23.296;2024-03-08T06:45:38;13.18;;;8.77;;
21868;SDS011;11099;41.564;23.296;2024-03-08T06:48:16;9.15;;;7.80;;
21868;SDS011;11099;41.564;23.296;2024-03-08T06:50:46;8.45;;;7.63;;
21868;SDS011;11099;41.564;23.296;2024-03-08T06:53:13;12.77;;;8.55;;
21868;SDS011;11099;41.564;23.296;2024-03-08T07:01:41;9.40;;;7.93;;
21868;SDS011;11099;41.564;23.296;2024-03-08T07:04:29;9.45;;;7.65;;
21868;SDS011;11099;41.564;23.296;2024-03-08T07:07:04;8.85;;;7.40;;
21868;SDS011;11099;41.564;23.296;2024-03-08T07:12:12;7.85;;;6.40;;
21868;SDS011;11099;41.564;23.296;2024-03-08T07:14:46;7.28;;;5.40;;
21868;SDS011;11099;41.564;23.296;2024-03-08T07:33:19;7.43;;;4.95;;
21868;SDS011;11099;41.564;23.296;2024-03-08T07:36:36;4.95;;;4.45;;
21868;SDS011;11099;41.564;23.296;2024-03-08T07:39:20;6.65;;;4.63;;
21868;SDS011;11099;41.564;23.296;2024-03-08T07:51:23;4.50;;;3.97;;
21868;SDS011;11099;41.564;23.296;2024-03-08T07:59:38;3.45;;;3.15;;
21868;SDS011;11099;41.564;23.296;2024-03-08T08:12:38;4.18;;;3.15;;
21868;SDS011;11099;41.564;23.296;2024-03-08T08:31:29;2.88;;;2.67;;
21868;SDS011;11099;41.564;23.296;2024-03-08T09:05:25;2.80;;;2.60;;
21868;SDS011;11099;41.564;23.296;2024-03-08T09:08:07;3.85;;;2.53;;
21868;SDS011;11099;41.564;23.296;2024-03-08T09:10:33;4.07;;;2.60;;
21868;SDS011;11099;41.564;23.296;2024-03-08T09:12:59;3.17;;;2.72;;
21868;SDS011;11099;41.564;23.296;2024-03-08T09:15:27;3.35;;;2.28;;
21868;SDS011;11099;41.564;23.296;2024-03-08T09:17:53;4.13;;;2.80;;
21868;SDS011;11099;41.564;23.296;2024-03-08T09:20:19;2.92;;;2.25;;
21868;SDS011;11099;41.564;23.296;2024-03-08T09:22:45;3.38;;;3.08;;
21868;SDS011;11099;41.564;23.296;2024-03-08T09:25:13;2.53;;;2.33;;
21868;SDS011;11099;41.564;23.296;2024-03-08T09:27:39;5.93;;;2.60;;
21868;SDS011;11099;41.564;23.296;2024-03-08T18:31:52;7.50;;;6.30;;
21868;SDS011;11099;41.564;23.296;2024-03-08T18:34:48;6.97;;;6.03;;
21868;SDS011;11099;41.564;23.296;2024-03-08T18:37:20;7.63;;;5.85;;
21868;SDS011;11099;41.564;23.296;2024-03-08T18:39:50;9.40;;;5.75;;
21868;SDS011;11099;41.564;23.296;2024-03-08T18:42:18;8.60;;;6.00;;
21868;SDS011;11099;41.564;23.296;2024-03-08T18:44:50;8.65;;;7.35;;
21868;SDS011;11099;41.564;23.296;2024-03-08T18:47:24;30.88;;;19.08;;
21868;SDS011;11099;41.564;23.296;2024-03-08T18:55:26;6.85;;;5.18;;
21868;SDS011;11099;41.564;23.296;2024-03-08T18:58:02;5.85;;;3.83;;
21868;SDS011;11099;41.564;23.296;2024-03-08T19:00:35;7.75;;;6.22;;
21868;SDS011;11099;41.564;23.296;2024-03-08T19:03:08;6.40;;;4.72;;
21868;SDS011;11099;41.564;23.296;2024-03-08T19:05:58;7.60;;;5.82;;
21868;SDS011;11099;41.564;23.296;2024-03-08T19:08:42;5.95;;;4.63;;
21868;SDS011;11099;41.564;23.296;2024-03-08T19:11:18;8.07;;;5.13;;
21868;SDS011;11099;41.564;23.296;2024-03-08T19:23:53;7.72;;;5.93;;
21868;SDS011;11099;41.564;23.296;2024-03-08T19:26:33;7.03;;;6.15;;
21868;SDS011;11099;41.564;23.296;2024-03-08T19:29:04;6.70;;;5.13;;
21868;SDS011;11099;41.564;23.296;2024-03-08T19:31:31;6.25;;;4.57;;
21868;SDS011;11099;41.564;23.296;2024-03-08T19:33:57;6.63;;;5.65;;
21868;SDS011;11099;41.564;23.296;2024-03-08T19:36:28;6.78;;;4.57;;
21868;SDS011;11099;41.564;23.296;2024-03-08T19:38:54;7.18;;;4.75;;
21868;SDS011;11099;41.564;23.296;2024-03-08T19:41:38;8.02;;;5.28;;
21868;SDS011;11099;41.564;23.296;2024-03-08T19:44:30;7.75;;;3.75;;
21868;SDS011;11099;41.564;23.296;2024-03-08T19:47:04;9.80;;;3.65;;
21868;SDS011;11099;41.564;23.296;2024-03-08T19:49:40;6.75;;;5.57;;
21868;SDS011;11099;41.564;23.296;2024-03-08T19:54:33;6.82;;;3.97;;
21868;SDS011;11099;41.564;23.296;2024-03-08T19:57:07;7.40;;;5.03;;
21868;SDS011;11099;41.564;23.296;2024-03-08T19:59:50;6.82;;;4.95;;
21868;SDS011;11099;41.564;23.296;2024-03-08T20:02:24;10.40;;;6.20;;
21868;SDS011;11099;41.564;23.296;2024-03-08T20:05:02;5.93;;;2.90;;
21868;SDS011;11099;41.564;23.296;2024-03-08T20:07:40;9.77;;;6.35;;
21868;SDS011;11099;41.564;23.296;2024-03-08T20:10:12;5.93;;;3.92;;
21868;SDS011;11099;41.564;23.296;2024-03-08T20:19:53;12.05;;;7.05;;
21868;SDS011;11099;41.564;23.296;2024-03-08T20:25:36;12.50;;;7.60;;
21868;SDS011;11099;41.564;23.296;2024-03-08T20:28:45;7.47;;;6.63;;
21868;SDS011;11099;41.564;23.296;2024-03-08T20:35:47;8.18;;;5.30;;
21868;SDS011;11099;41.564;23.296;2024-03-08T20:38:46;8.18;;;6.57;;
21868;SDS011;11099;41.564;23.296;2024-03-08T20:42:05;10.23;;;6.28;;
21868;SDS011;11099;41.564;23.296;2024-03-08T20:48:31;11.45;;;6.32;;
21868;SDS011;11099;41.564;23.296;2024-03-08T20:51:01;6.10;;;4.70;;
21868;SDS011;11099;41.564;23.296;2024-03-08T20:53:31;9.00;;;5.82;;
21868;SDS011;11099;41.564;23.296;2024-03-08T20:55:57;12.20;;;8.10;;
21868;SDS011;11099;41.564;23.296;2024-03-08T20:58:41;10.98;;;8.30;;
21868;SDS011;11099;41.564;23.296;2024-03-08T21:01:08;8.90;;;6.63;;
21868;SDS011;11099;41.564;23.296;2024-03-08T21:03:38;13.35;;;8.18;;
21868;SDS011;11099;41.564;23.296;2024-03-08T21:06:10;12.57;;;8.25;;
21868;SDS011;11099;41.564;23.296;2024-03-08T21:08:47;14.80;;;10.10;;
21868;SDS011;11099;41.564;23.296;2024-03-08T21:11:13;12.52;;;9.07;;
21868;SDS011;11099;41.564;23.296;2024-03-08T21:13:53;13.82;;;8.32;;
21868;SDS011;11099;41.564;23.296;2024-03-08T21:16:21;12.85;;;9.57;;
21868;SDS011;11099;41.564;23.296;2024-03-08T21:18:49;11.37;;;8.30;;
21868;SDS011;11099;41.564;23.296;2024-03-08T21:21:23;6.30;;;4.32;;
21868;SDS011;11099;41.564;23.296;2024-03-08T21:24:08;11.85;;;8.20;;
21868;SDS011;11099;41.564;23.296;2024-03-08T21:26:35;10.48;;;8.32;;
21868;SDS011;11099;41.564;23.296;2024-03-08T21:29:02;11.45;;;8.07;;
21868;SDS011;11099;41.564;23.296;2024-03-08T21:31:31;13.57;;;8.02;;
21868;SDS011;11099;41.564;23.296;2024-03-08T21:34:03;10.23;;;7.63;;
21868;SDS011;11099;41.564;23.296;2024-03-08T21:36:31;9.27;;;7.00;;
21868;SDS011;11099;41.564;23.296;2024-03-08T21:38:57;9.73;;;6.45;;
21868;SDS011;11099;41.564;23.296;2024-03-08T21:41:27;10.75;;;8.18;;
21868;SDS011;11099;41.564;23.296;2024-03-08T21:43:54;9.93;;;6.38;;
21868;SDS011;11099;41.564;23.296;2024-03-08T21:46:21;9.15;;;6.72;;
21868;SDS011;11099;41.564;23.296;2024-03-08T21:48:48;9.60;;;7.75;;
21868;SDS011;11099;41.564;23.296;2024-03-08T21:51:16;9.85;;;7.05;;
21868;SDS011;11099;41.564;23.296;2024-03-08T21:53:42;10.60;;;7.63;;
21868;SDS011;11099;41.564;23.296;2024-03-08T21:56:11;9.93;;;7.20;;
21868;SDS011;11099;41.564;23.296;2024-03-08T21:58:39;8.18;;;6.55;;
21868;SDS011;11099;41.564;23.296;2024-03-08T22:01:07;13.95;;;7.90;;
21868;SDS011;11099;41.564;23.296;2024-03-08T22:03:35;10.10;;;7.93;;
21868;SDS011;11099;41.564;23.296;2024-03-08T22:06:02;9.75;;;6.82;;
21868;SDS011;11099;41.564;23.296;2024-03-08T22:08:55;12.00;;;8.10;;
21868;SDS011;11099;41.564;23.296;2024-03-08T22:11:30;10.85;;;8.27;;
21868;SDS011;11099;41.564;23.296;2024-03-08T22:14:02;6.10;;;4.05;;
21868;SDS011;11099;41.564;23.296;2024-03-08T22:16:32;9.93;;;7.68;;
21868;SDS011;11099;41.564;23.296;2024-03-08T22:19:13;7.35;;;5.45;;
21868;SDS011;11099;41.564;23.296;2024-03-08T22:21:51;11.73;;;7.95;;
21868;SDS011;11099;41.564;23.296;2024-03-08T22:24:20;14.60;;;8.95;;
21868;SDS011;11099;41.564;23.296;2024-03-08T22:26:58;10.80;;;8.07;;
21868;SDS011;11099;41.564;23.296;2024-03-08T22:29:35;10.43;;;7.90;;
21868;SDS011;11099;41.564;23.296;2024-03-08T22:32:03;15.35;;;9.05;;
21868;SDS011;11099;41.564;23.296;2024-03-08T22:39:46;11.52;;;8.35;;
21868;SDS011;11099;41.564;23.296;2024-03-08T22:42:13;13.15;;;9.45;;
21868;SDS011;11099;41.564;23.296;2024-03-08T22:57:59;11.23;;;8.70;;
21868;SDS011;11099;41.564;23.296;2024-03-08T23:00:26;11.80;;;9.68;;
21868;SDS011;11099;41.564;23.296;2024-03-08T23:03:18;13.57;;;10.15;;
21868;SDS011;11099;41.564;23.296;2024-03-08T23:05:54;13.77;;;8.68;;
21868;SDS011;11099;41.564;23.296;2024-03-08T23:08:23;11.68;;;8.90;;
21868;SDS011;11099;41.564;23.296;2024-03-08T23:10:55;17.33;;;10.90;;
21868;SDS011;11099;41.564;23.296;2024-03-08T23:19:11;15.00;;;9.57;;
21868;SDS011;11099;41.564;23.296;2024-03-08T23:21:42;13.80;;;9.00;;
21868;SDS011;11099;41.564;23.296;2024-03-08T23:24:11;12.13;;;9.32;;
21868;SDS011;11099;41.564;23.296;2024-03-08T23:26:42;17.15;;;9.75;;
21868;SDS011;11099;41.564;23.296;2024-03-08T23:29:10;13.07;;;10.60;;
21868;SDS011;11099;41.564;23.296;2024-03-08T23:31:38;13.57;;;9.27;;
21868;SDS011;11099;41.564;23.296;2024-03-08T23:34:12;13.00;;;9.38;;
21868;SDS011;11099;41.564;23.296;2024-03-08T23:37:03;12.95;;;9.38;;
21868;SDS011;11099;41.564;23.296;2024-03-08T23:55:28;12.93;;;9.38;;
21868;SDS011;11099;41.564;23.296;2024-03-08T23:58:03;15.75;;;10.20;;
